Cambria, WI (53923)

10:38 PM CST on February 13, 2016 (GMT -0600)
APRSWXNET | | Change Station
CLOSE
Current Station
Personal Weather Station
Location: Cambria, WI
Elevation: 944 ft
Nearby Weather Stations

Elev 944 ft 43.54 °N, 89.11 °W | Updated 38 minutes ago

Mostly Cloudy
Mostly Cloudy
1 °F
Feels Like 1 °F
N
0
Wind Variable Wind from NNW
Gusts 0.0 mph

Today
High -- | Low -- °F
--% Chance of Precip.
Yesterday
High -- | Low -- °F
Precip. -- in
Pressure 30.45 in
Visibility 10.0 miles
Clouds Clear
Windchill 1 °F
Dew Point -6 °F
Humidity 73%
Rainfall in
Snow Depth Not available.
6:58 AM 5:23 PM
Waxing Crescent, 37% visible
METAR KUNU 140415Z AUTO 14005KT 10SM CLR M17/M21 A3045 RMK AO2 T11721213
Pressure 30.45 in
Visibility 10.0 miles
Clouds Clear
Windchill 1 °F
Dew Point -6 °F
Humidity 73%
Rainfall in
Snow Depth Not available.
6:58 AM 5:23 PM
Waxing Crescent, 37% visible
METAR KUNU 140415Z AUTO 14005KT 10SM CLR M17/M21 A3045 RMK AO2 T11721213

10-Day Weather Forecast

Almanac

Astronomy

Feb. 13, 2016 Rise Set
Actual Time
Civil Twilight
Nautical Twilight
Astronomical Twilight
Moon
Length of Visible Light
Length of Day
Tomorrow will be .
, % of the Moon is Illuminated

Today's Extremes

State Highs State Lows

Community

WunderPhotos

Upload Photos

1,892,746 photos uploaded!

WunderBlog® & News

Nearby

Air Quality

  Air Quality AQ Index Pollutant
Not available.

Snow Depth

Station Depth Elevation

Earthquake Activity

City Distance Mag. Time & Date
Minimum magnitude displayed is 2.5.

Coastal Water Temperatures

Place Temperature

Stations

Nearby Weather Stations

Station Location Temp. Windchill Dew Point Humidity Wind Precip. Elev Updated Type
                   

Watches & Warnings

There are currently no watches in effect.